Date,TemperatureHighF,TemperatureAvgF,TemperatureLowF,DewpointHighF,DewpointAvgF,DewpointLowF,HumidityHigh,HumidityAvg,HumidityLow,PressureMaxIn,PressureMinIn,WindSpeedMaxMPH,WindSpeedAvgMPH,GustSpeedMaxMPH,PrecipitationSumIn
2013-1-1,20.5,7.1,-4.1,17.0,2.1,-8.6,86,80,67,30.39,30.14,15,2,15,0.00
2013-1-2,20.9,17.1,14.2,18.2,13.7,11.0,89,86,81,30.16,30.05,16,2,16,0.00
2013-1-3,22.0,16.4,12.7,19.0,11.2,5.7,91,80,63,30.34,30.15,19,6,19,0.00
2013-1-4,33.3,23.5,16.0,19.8,16.2,11.7,89,74,57,30.21,30.10,20,4,20,0.00
2013-1-5,27.5,19.8,13.4,16.8,14.0,10.0,91,78,62,30.19,29.92,16,3,16,0.00
2013-1-6,26.1,19.2,13.9,17.3,12.3,7.9,87,75,55,30.30,30.07,15,4,15,0.00
2013-1-7,38.2,30.2,17.6,26.7,23.0,12.1,85,74,62,30.14,29.95,22,6,22,0.00
2013-1-8,35.4,29.0,19.5,29.7,24.2,16.4,89,82,71,30.05,29.82,21,4,21,0.00
2013-1-9,35.9,32.1,27.9,29.5,23.4,20.5,84,71,55,30.42,29.93,35,8,35,0.00
2013-1-10,40.6,34.9,28.1,31.6,25.6,21.0,89,70,46,30.39,29.80,21,6,21,0.00
2013-1-11,41.9,38.1,35.0,37.4,34.3,31.4,88,86,84,29.82,29.40,20,5,20,0.00
2013-1-12,41.4,17.4,6.4,37.9,10.9,0.2,89,75,67,30.15,29.41,37,12,37,0.00
2013-1-13,8.9,6.2,3.3,3.2,0.6,-2.0,87,77,74,30.35,30.13,16,5,16,0.00
2013-1-14,14.1,9.5,5.8,6.1,3.2,1.3,85,75,61,30.52,30.34,16,3,16,0.00
2013-1-15,30.3,21.0,10.0,18.9,13.2,4.7,86,72,53,30.41,29.91,25,5,25,0.00
2013-1-16,36.7,27.2,14.3,31.6,17.9,-1.8,89,69,43,30.29,29.72,25,8,25,0.00
2013-1-17,19.4,13.7,9.1,10.9,1.8,-99.9,78,61,46,30.48,30.27,18,-7,18,0.00
2013-1-18,41.6,29.6,17.1,30.6,23.2,10.2,87,77,62,30.41,29.79,21,5,21,0.00
2013-1-19,38.5,24.5,3.4,30.8,17.7,-4.5,89,75,55,30.27,29.71,47,11,47,0.00
2013-1-20,8.0,3.3,-1.1,0.7,-5.1,-10.0,77,68,58,30.50,30.25,24,9,24,0.00
2013-1-21,0.2,-5.5,-9.6,-9.8,-14.4,-19.1,73,65,59,30.47,30.38,23,10,23,0.00
2013-1-22,5.6,-2.6,-10.7,-2.7,-11.3,-17.4,82,66,56,30.55,30.37,14,4,14,0.00
2013-1-23,15.5,7.1,-4.3,9.5,-2.2,-15.0,84,66,47,30.72,30.27,30,7,30,0.00
2013-1-24,12.3,2.1,-6.3,2.8,-8.7,-99.9,67,62,59,30.80,30.30,20,-6,20,0.00
2013-1-25,19.4,14.3,6.2,12.2,5.9,-1.3,83,69,57,30.40,30.03,29,9,29,0.00
2013-1-26,24.7,13.3,1.6,13.5,4.6,-3.2,83,68,56,30.45,30.23,17,3,17,0.00
2013-1-27,33.3,29.7,24.2,29.1,22.4,12.9,89,75,60,30.24,29.86,18,4,18,0.00
2013-1-28,34.6,32.2,30.4,31.6,28.9,26.9,89,88,86,29.96,29.68,15,2,15,0.00
2013-1-29,36.0,32.8,28.9,31.8,28.4,22.9,90,84,78,29.79,29.56,20,5,20,0.00
2013-1-30,29.8,21.3,16.1,22.8,15.5,9.6,82,78,74,29.79,29.68,24,10,24,0.00
2013-1-31,4.5,0.9,-5.7,-4.1,-7.8,-14.0,70,66,64,30.38,30.10,32,12,32,0.00
2013-2-1,3.6,-2.8,-10.6,-0.7,-10.3,-16.6,82,70,55,30.44,30.19,15,4,16,0.00
2013-2-2,12.5,6.5,0.7,6.4,0.5,-4.6,84,76,63,30.31,30.08,11,2,11,0.00
2013-2-3,14.0,11.0,5.3,7.6,4.6,0.2,85,75,65,30.18,30.08,19,4,19,0.00
2013-2-4,16.4,10.9,4.2,10.7,3.4,-2.4,86,72,58,30.18,29.85,11,2,14,0.00
2013-2-5,27.9,21.8,11.0,24.0,15.6,6.7,89,77,57,30.16,29.73,20,4,20,0.00
2013-2-6,25.8,17.3,6.8,22.8,13.4,3.1,91,84,81,30.19,30.04,14,2,14,0.00
2013-2-7,28.1,26.4,24.8,23.4,22.3,20.8,90,85,77,30.32,30.07,17,5,17,0.00
2013-2-8,27.4,21.9,12.8,20.7,14.4,9.1,88,73,59,30.47,30.31,16,3,16,0.00
2013-2-9,32.0,28.6,22.1,28.0,24.9,15.7,91,86,82,30.32,30.00,25,8,25,0.00
2013-2-10,34.0,31.1,28.3,30.7,27.9,24.8,90,88,86,30.03,29.32,24,5,24,0.00
2013-2-11,32.2,28.6,25.4,28.3,25.4,20.1,90,87,80,29.78,29.34,27,10,27,0.00
2013-2-12,36.0,28.5,18.5,24.5,21.0,14.7,85,74,60,30.06,29.87,19,6,19,0.00
2013-2-13,39.4,29.4,22.0,31.4,23.3,-99.9,91,80,63,29.87,29.62,15,-8,15,0.00
2013-2-14,33.2,25.2,16.8,30.0,12.1,-99.9,90,70,45,30.23,29.63,23,-56,23,0.00
2013-2-15,16.7,10.8,7.4,6.0,3.2,1.3,76,71,59,30.36,30.23,13,4,13,0.00
2013-2-19,11.1,6.7,2.7,-1.3,-3.9,-6.0,71,61,55,30.46,30.05,29,11,29,0.00
2013-2-20,15.3,6.9,-2.0,4.0,-1.0,-7.3,79,70,58,30.58,30.46,12,2,12,0.00
2013-2-21,22.2,15.3,3.7,13.4,6.9,-1.0,83,69,59,30.57,30.19,15,3,15,0.00
2013-2-22,27.5,23.6,20.1,23.6,18.6,-99.9,91,84,66,30.20,29.93,12,-8,12,0.00
2013-2-23,31.9,25.8,20.3,24.5,21.3,17.5,90,83,71,30.02,29.90,13,3,13,0.00
2013-2-24,35.4,26.1,15.2,23.7,19.3,12.3,91,76,59,30.17,30.02,12,1,12,0.00
2013-2-25,38.9,29.1,20.4,26.3,22.7,17.4,90,77,58,30.17,30.09,6,0,6,0.00
2013-2-26,37.3,27.7,18.1,27.9,21.1,-99.9,90,80,67,30.12,29.94,17,-10,17,0.00
2013-2-27,37.9,31.8,28.1,26.8,25.0,22.3,83,76,62,30.08,29.93,23,7,23,0.00
2013-2-28,30.9,27.6,24.2,23.3,16.8,-99.9,79,70,66,30.29,30.08,20,-26,20,0.00
2013-3-1,30.0,24.9,16.4,18.8,15.9,10.9,79,68,56,30.42,30.29,17,4,17,0.00
2013-3-2,32.0,20.0,7.2,13.6,7.4,-99.9,87,64,38,30.44,30.25,10,-21,10,0.00
2013-3-3,33.9,25.6,17.6,12.5,9.3,6.4,72,51,36,30.25,30.06,18,4,18,0.00
2013-3-4,26.9,25.9,25.1,22.6,16.2,8.8,89,68,46,30.11,30.02,21,5,21,0.00
2013-3-5,28.8,24.2,20.9,25.5,16.3,-99.9,90,84,82,30.38,30.05,17,-45,17,0.00
2013-3-6,28.7,22.0,15.3,19.8,15.1,-99.9,91,78,66,30.50,30.37,18,-8,18,0.00
2013-3-7,33.4,22.9,9.0,19.3,14.4,5.4,88,71,53,30.49,30.37,15,3,15,0.00
2013-3-8,40.0,31.4,21.8,29.9,24.3,16.7,85,75,65,30.41,30.16,18,5,18,0.00
2013-3-9,37.4,33.8,33.7,34.5,24.6,-99.9,95,82,73,30.16,29.75,19,-56,19,0.00
2013-3-10,36.2,33.1,30.7,33.0,26.6,-99.9,90,82,78,30.00,29.82,27,-13,27,0.00
2013-3-11,30.9,28.4,24.9,25.5,22.9,18.5,84,80,69,29.92,29.80,18,7,18,0.00
2013-3-12,29.4,25.3,21.8,18.8,15.7,10.9,82,67,48,30.25,29.89,25,7,25,0.00
2013-3-13,32.9,24.0,15.0,16.9,12.7,9.3,84,64,38,30.45,30.25,15,4,15,0.00
2013-3-14,40.4,30.5,23.6,28.9,21.7,-99.9,89,75,62,30.34,30.07,15,-18,15,0.00
2013-3-15,34.3,30.3,24.2,30.6,23.8,-99.9,90,83,75,30.08,29.90,16,-17,16,0.00
2013-3-16,26.1,21.4,14.1,21.4,10.4,-99.9,89,66,51,30.32,29.95,21,-8,21,0.00
2013-3-17,27.2,17.7,4.7,17.6,2.5,-99.9,76,58,47,30.36,29.98,20,-30,20,0.00
2013-3-18,29.5,22.6,14.6,26.8,16.7,-99.9,90,79,69,29.99,29.66,32,9,32,0.00
2013-3-19,22.6,13.6,8.1,8.0,-4.9,-99.9,76,57,43,30.19,29.86,31,-69,31,0.00
2013-3-20,22.1,12.6,6.9,5.3,-7.5,-99.9,65,52,46,30.21,30.11,26,-74,26,0.00
2013-3-21,27.9,15.7,4.2,11.1,-2.6,-99.9,81,57,46,30.14,30.05,14,-76,14,0.00
2013-3-22,37.9,24.3,10.3,18.1,12.0,5.5,91,61,39,30.10,30.04,11,0,11,0.00
2013-3-23,39.4,30.0,18.9,21.5,17.6,13.4,82,61,42,30.14,30.06,11,1,11,0.00
2013-3-24,32.9,29.3,28.0,25.3,18.6,-99.9,78,69,64,30.09,29.96,18,-21,18,0.00
2013-3-25,37.9,30.2,22.6,21.4,18.8,15.4,76,63,45,30.19,30.02,22,5,22,0.00
2013-3-26,38.9,33.1,29.3,23.6,18.5,-99.9,71,59,45,30.28,30.19,13,-23,13,0.00
2013-3-27,44.9,35.4,26.8,22.1,19.6,16.7,72,54,35,30.33,30.27,13,1,13,0.00
2013-3-28,45.4,35.6,23.0,25.1,21.0,17.6,82,57,36,30.33,30.26,12,2,12,0.00
2013-3-29,49.1,39.9,29.2,35.1,28.8,22.6,78,65,52,30.27,30.05,18,4,18,0.00
2013-3-30,53.1,43.5,37.5,43.1,35.8,-99.9,89,77,59,30.05,29.80,20,-6,20,0.00
2013-3-31,39.2,34.7,25.7,32.5,23.2,11.9,95,65,34,30.05,29.75,30,9,30,0.00
2013-4-1,34.9,26.2,18.3,17.3,12.9,9.2,74,58,37,30.24,30.05,24,8,24,0.00
2013-4-2,36.9,28.3,19.5,16.8,14.3,9.8,78,58,35,30.35,30.23,18,4,18,0.00
2013-4-3,39.9,25.6,20.7,18.8,11.3,-99.9,79,63,41,30.40,30.32,17,-40,17,0.00
2013-4-4,50.1,44.0,34.8,34.0,27.4,21.6,76,53,40,30.13,29.99,20,6,20,0.00
2013-4-5,43.4,34.9,26.5,32.4,23.4,17.4,89,65,35,30.22,29.89,20,5,20,0.03
2013-4-6,50.9,41.2,36.2,39.8,33.2,28.2,90,74,56,29.89,29.47,27,8,27,0.10
2013-4-7,47.1,40.2,35.7,36.7,33.4,30.3,88,77,65,29.92,29.70,16,3,16,0.10
2013-4-8,44.3,40.9,38.9,40.5,37.7,35.6,89,88,85,30.02,29.65,18,3,18,0.53
2013-4-9,42.8,38.2,34.3,35.8,31.8,24.7,91,78,59,30.15,29.94,28,8,28,0.24
2013-4-10,40.4,35.6,30.1,28.3,25.4,21.5,90,68,51,30.17,29.89,26,8,26,0.05
2013-4-11,36.9,32.8,30.6,31.9,24.5,-99.9,90,80,55,29.90,29.66,29,-7,29,0.42
2013-4-12,35.9,31.1,28.0,29.9,25.7,-99.9,90,83,73,29.82,29.65,14,-7,14,0.12
2013-4-13,35.9,31.8,28.3,28.2,25.5,23.2,90,78,63,29.95,29.81,18,3,20,0.05
2013-4-14,37.1,32.2,29.7,34.2,27.7,23.0,90,83,72,29.94,29.47,27,5,27,0.03
2013-4-15,39.1,36.5,33.0,34.4,29.2,25.6,90,75,66,29.94,29.51,35,11,35,0.04
2013-4-16,45.4,38.3,33.8,30.8,28.1,26.6,78,67,52,30.30,29.93,25,4,25,0.00
2013-4-17,41.0,37.1,33.9,34.5,30.0,26.6,90,75,66,30.30,29.86,23,6,23,0.17
2013-4-18,35.0,33.0,31.5,32.4,30.0,28.1,90,89,87,29.90,29.45,23,7,23,0.17
2013-4-19,37.0,28.8,29.5,28.2,11.2,-99.9,90,68,52,29.96,29.43,32,-105,32,0.33
2013-4-20,41.4,32.3,21.5,17.9,12.5,5.2,67,45,25,30.29,29.97,11,1,11,0.25
2013-4-21,48.4,39.9,32.9,44.3,33.9,17.0,89,80,49,30.30,29.99,26,7,26,0.25
2013-4-22,43.3,39.0,36.2,37.3,33.5,31.1,90,81,65,30.18,30.08,20,5,20,0.04
2013-4-23,41.8,36.3,29.8,30.2,24.8,19.6,90,65,43,30.13,30.03,20,6,20,0.34
2013-4-24,49.7,36.9,-70.5,34.3,26.8,-99.9,91,69,39,30.05,29.87,32,6,32,0.03
2013-4-25,50.2,41.1,32.6,33.8,28.8,22.9,87,64,36,30.17,29.94,19,6,19,0.01
2013-4-26,71.1,57.0,44.4,43.8,38.1,28.7,67,51,29,30.05,29.94,25,8,25,0.01
2013-4-27,72.6,68.2,60.5,49.1,42.5,37.5,62,41,30,30.03,29.83,20,6,20,0.00
2013-4-28,78.7,63.5,52.1,54.1,48.1,44.6,87,60,32,29.83,29.56,26,7,26,0.23
2013-4-29,73.5,61.3,48.1,56.4,47.7,36.7,88,63,39,29.75,29.49,17,3,17,0.00
2013-4-30,70.6,64.5,57.3,58.7,46.5,28.8,79,55,26,29.88,29.34,30,8,30,0.00
2013-5-1,57.2,41.2,34.4,39.1,34.0,29.6,89,77,45,30.44,29.88,22,5,22,0.34
2013-5-2,44.7,38.9,34.0,31.9,28.0,-99.9,89,68,51,30.51,30.39,25,6,25,0.06
2013-5-3,39.1,34.3,31.7,32.2,29.4,25.8,89,82,60,30.40,30.14,22,7,22,0.26
2013-5-4,48.5,39.4,33.3,42.2,35.5,30.1,89,86,77,30.15,30.10,15,6,18,0.18
2013-5-5,65.3,49.5,37.7,48.0,41.1,34.5,88,75,53,30.15,30.03,11,2,11,0.00
2013-5-6,75.5,60.1,44.2,49.0,45.1,40.6,88,61,34,30.07,29.95,13,1,13,0.00
2013-5-7,77.0,66.6,52.6,50.1,45.4,37.3,80,50,25,30.00,29.88,22,2,22,0.00
2013-5-8,76.9,65.7,58.4,55.9,50.3,44.4,86,60,32,29.94,29.86,17,1,17,0.18
2013-5-9,58.4,52.2,42.6,54.2,46.1,30.4,91,80,58,30.13,29.88,23,7,23,0.07
2013-5-10,65.8,51.3,36.2,42.2,29.1,21.4,78,47,19,30.16,29.90,14,3,14,0.00
2013-5-11,58.1,46.2,40.4,40.3,27.4,20.3,66,49,33,30.21,29.89,33,11,33,0.01
2013-5-12,57.3,45.9,34.5,26.5,21.9,15.8,64,41,21,30.26,30.12,22,5,22,0.00
2013-5-13,69.1,54.3,36.1,46.6,33.3,24.2,69,47,27,30.15,29.67,27,6,27,0.02
2013-5-14,95.1,73.8,54.1,53.8,46.1,28.3,77,42,13,29.73,29.44,37,7,37,0.00
2013-5-15,77.5,66.6,54.5,49.2,44.2,-99.9,69,47,31,29.91,29.61,25,-6,25,0.00
2013-5-16,82.3,70.2,54.9,50.4,42.5,29.1,74,40,22,29.92,29.81,23,4,23,0.00
2013-5-17,68.3,58.2,53.2,52.8,48.4,29.8,85,73,26,30.01,29.89,20,6,20,0.31
2013-5-18,79.3,64.4,53.6,65.1,56.5,47.1,86,76,57,30.03,29.80,22,5,22,0.75
2013-5-19,80.5,68.8,62.5,67.0,61.2,55.5,85,77,59,29.82,29.56,35,5,35,1.03
2013-5-20,70.8,65.5,59.9,61.9,58.3,55.7,86,78,63,29.58,29.50,24,6,24,0.68
2013-5-21,64.0,56.1,48.0,57.5,51.6,44.0,88,85,79,29.73,29.53,19,4,19,0.11
2013-5-22,53.9,49.8,45.7,48.7,45.2,41.5,88,84,69,30.02,29.71,23,6,23,0.03
2013-5-23,63.4,53.3,44.1,44.0,34.9,29.1,82,53,30,30.39,30.00,22,6,22,0.00
2013-5-24,67.2,56.0,38.5,51.4,38.0,28.9,85,53,34,30.44,30.22,19,4,19,0.18
2013-5-25,62.1,57.4,52.6,50.8,47.4,44.1,87,70,53,30.30,30.24,23,6,23,0.09
2013-5-26,60.0,56.2,51.9,47.2,40.4,-99.9,72,57,39,30.27,30.08,29,-5,29,0.00
2013-5-27,60.5,56.9,55.3,53.8,48.2,-99.9,87,75,65,30.12,29.86,21,-4,21,0.02
2013-5-28,59.0,56.2,53.2,55.1,52.3,49.4,87,87,86,29.89,29.74,16,2,16,0.01
2013-5-29,76.0,65.6,57.3,68.3,60.0,53.1,88,83,70,29.85,29.65,21,3,21,0.46
2013-5-30,76.7,69.1,63.8,64.8,62.2,58.1,87,79,62,29.73,29.52,30,7,30,0.42
2013-5-31,77.0,67.8,61.4,61.9,57.7,50.1,87,72,40,29.56,29.49,35,7,35,0.24
2013-6-1,71.4,60.4,51.5,57.7,52.5,42.1,87,76,51,29.94,29.55,24,5,24,0.00
2013-6-2,66.8,56.1,48.2,45.6,40.8,36.5,79,58,35,30.10,29.92,22,5,22,0.00
2013-6-3,68.8,59.9,47.3,49.1,44.4,40.3,89,59,37,30.10,29.97,11,1,11,0.00
2013-6-4,63.5,59.3,54.0,51.8,48.0,39.8,87,67,47,30.12,30.01,23,4,23,0.02
2013-6-5,56.9,55.2,54.0,53.1,51.2,49.6,88,86,84,30.11,29.97,16,2,16,0.14
2013-6-6,55.9,53.2,49.7,52.1,48.8,44.4,88,85,81,30.06,29.98,10,2,10,0.02
2013-6-7,64.0,57.7,53.0,54.0,51.3,48.6,89,80,64,30.08,29.94,8,1,8,0.00
2013-6-8,71.5,61.1,55.9,56.6,52.9,51.0,87,75,53,29.95,29.91,17,2,18,0.00
2013-6-9,66.2,60.2,56.1,60.9,55.4,52.1,88,84,69,29.92,29.79,25,5,25,0.57
2013-6-10,76.3,66.2,57.7,62.5,59.0,52.2,88,78,59,29.87,29.81,11,0,11,0.00
2013-6-11,75.2,67.3,56.6,66.8,61.3,51.6,88,81,70,29.90,29.80,10,0,10,0.01
2013-6-12,74.5,67.0,61.8,66.0,60.3,51.7,88,80,57,29.92,29.71,33,3,33,0.55
2013-6-13,76.8,68.0,57.8,56.3,52.9,49.8,76,59,45,30.11,29.90,17,3,17,0.00
2013-6-14,77.5,69.0,58.4,59.9,56.3,50.1,79,64,52,30.11,29.88,23,5,23,0.00
2013-6-15,75.0,68.4,62.5,68.0,63.0,58.3,87,83,68,29.95,29.84,19,1,19,1.14
2013-6-16,84.8,70.9,56.6,58.5,52.6,43.8,88,58,25,29.93,29.84,45,4,45,0.01
2013-6-17,79.8,69.6,59.9,60.1,56.3,52.6,86,64,41,30.03,29.85,19,3,19,0.00
2013-6-18,75.0,65.4,55.7,57.8,53.7,48.3,80,67,47,30.11,30.01,18,2,18,0.00
2013-6-19,82.8,72.2,60.6,61.0,57.6,51.9,79,61,44,30.09,29.96,16,3,16,0.00
2013-6-20,87.7,78.5,70.7,68.4,63.8,59.8,73,61,45,30.01,29.88,26,5,26,0.00
2013-6-21,79.0,71.7,65.0,67.5,63.7,59.2,87,77,61,30.12,29.71,50,4,50,2.46
2013-6-22,79.4,70.9,-90.0,68.9,64.7,-92.5,87,81,68,30.03,29.85,19,3,19,0.37
2013-6-23,82.0,74.4,69.1,68.9,65.9,62.3,87,76,54,29.88,29.69,27,7,27,0.36
2013-6-24,81.5,73.7,64.0,70.0,65.2,59.5,87,75,59,29.92,29.80,20,1,20,0.00
2013-6-25,84.5,72.7,65.8,72.0,60.4,-99.9,87,72,59,29.85,29.70,19,-36,19,0.00
2013-6-26,86.8,75.0,72.4,74.6,63.2,-99.9,87,73,53,29.80,29.65,21,-32,21,0.78
2013-6-27,85.8,77.8,69.1,66.2,60.4,52.1,86,58,33,29.80,29.76,30,6,30,0.00
2013-6-28,77.3,70.0,65.0,65.2,60.4,57.5,87,72,56,29.79,29.74,26,7,26,0.20
2013-6-29,75.5,68.1,62.1,61.5,57.0,50.9,88,69,44,29.99,29.74,19,4,19,0.87
2013-6-30,81.2,69.7,57.5,57.9,53.0,46.8,83,58,34,30.13,29.99,17,2,17,0.00
2013-7-1,83.3,73.0,59.9,61.8,55.8,49.3,88,58,36,30.19,30.11,14,1,14,0.00
2013-7-2,81.2,71.3,58.9,56.5,53.1,46.6,74,54,37,30.17,30.05,14,2,14,0.00
2013-7-3,83.0,71.2,56.0,57.8,50.7,40.5,86,53,25,30.08,29.96,11,1,11,0.00
2013-7-4,86.9,76.3,64.8,63.4,57.4,52.5,73,54,32,29.98,29.85,23,4,23,0.00
2013-7-5,86.0,78.7,69.8,64.1,60.6,57.8,67,54,43,29.90,29.80,28,7,28,0.00
2013-7-6,88.4,80.8,73.3,69.2,63.8,60.9,66,57,45,29.87,29.79,19,4,19,0.00
2013-7-7,86.9,77.1,71.3,70.5,67.0,63.6,86,72,57,29.87,29.78,19,3,19,0.11
2013-7-8,83.6,71.9,62.2,70.4,64.4,55.7,88,78,58,30.00,29.85,13,2,13,0.00
2013-7-9,84.1,76.8,70.0,71.1,67.9,63.0,87,75,59,29.97,29.76,36,7,36,0.83
2013-7-10,79.8,71.1,61.8,64.0,56.7,52.8,82,62,41,30.05,29.87,21,5,21,0.00
2013-7-11,83.8,73.5,59.9,61.7,57.8,54.2,87,61,39,30.12,29.98,16,2,16,0.00
2013-7-12,86.5,76.9,68.7,63.8,58.5,-99.9,70,55,44,30.02,29.90,22,-2,26,0.00
2013-7-13,77.5,72.2,64.6,69.3,62.9,57.3,86,73,54,30.08,29.91,27,6,27,0.71
2013-7-14,83.8,76.4,70.3,67.6,64.3,60.6,80,67,49,30.18,30.06,22,4,22,0.01
2013-7-15,87.0,79.0,68.6,69.7,65.9,62.8,85,66,47,30.24,30.15,17,2,17,0.00
2013-7-16,90.6,83.0,75.4,72.4,70.1,66.6,85,66,48,30.20,30.15,19,4,19,0.00
2013-7-17,90.9,81.8,75.4,71.2,66.0,-99.9,84,63,47,30.23,30.09,22,-18,22,0.00
2013-7-18,91.6,83.3,77.4,71.7,66.6,-99.9,79,61,46,30.10,29.73,34,-13,34,0.00
2013-7-19,85.9,80.1,74.4,70.9,63.9,57.3,77,59,42,29.87,29.68,29,7,29,0.00
2013-7-20,77.8,71.8,64.9,62.9,59.6,55.5,86,67,48,29.97,29.83,23,3,23,0.00
2013-7-21,79.0,68.1,57.9,67.2,59.0,46.8,88,73,55,29.97,29.81,15,3,15,0.36
2013-7-22,85.5,74.1,66.2,71.5,63.7,56.2,87,71,47,29.84,29.66,23,6,23,0.00
2013-7-23,74.5,67.3,60.9,56.4,53.0,49.6,80,61,44,30.03,29.82,18,3,18,0.00
2013-7-24,76.9,67.4,57.3,59.0,54.5,50.1,81,64,50,30.10,29.98,9,1,9,0.00
2013-7-25,79.5,71.7,62.7,63.9,60.0,56.0,87,68,47,30.00,29.91,24,2,24,0.09
2013-7-26,72.3,63.5,54.2,65.0,55.3,45.9,86,75,62,30.09,29.89,30,6,30,0.05
2013-7-27,59.9,55.1,52.3,52.6,48.1,45.4,84,78,64,30.09,29.96,29,6,29,0.09
2013-7-28,71.8,59.5,51.2,54.2,50.0,45.9,86,72,50,30.09,29.98,16,3,16,0.00
2013-7-29,77.3,66.7,53.1,57.7,53.5,49.1,91,65,42,30.15,30.08,14,2,14,0.00
2013-7-30,70.1,65.8,62.4,63.7,61.0,56.7,88,84,69,30.12,30.06,9,0,9,0.15
2013-7-31,79.3,68.9,61.6,64.3,57.7,50.6,88,70,39,30.08,29.98,23,3,23,0.01
2013-8-1,80.3,69.3,55.2,58.8,53.7,50.9,87,60,38,30.04,29.87,15,2,15,0.00
2013-8-2,75.7,67.8,59.4,58.5,54.2,47.0,87,64,38,30.05,29.85,17,2,17,0.00
2013-8-3,76.0,65.6,53.1,55.5,51.5,48.3,88,64,40,30.21,30.05,18,2,18,0.00
2013-8-4,73.8,65.3,55.5,56.1,53.1,50.4,85,66,46,30.25,30.03,11,1,11,0.00
2013-8-5,77.6,68.1,60.3,67.1,61.8,55.3,87,81,65,30.07,29.79,17,2,17,0.50
2013-8-6,83.0,69.2,58.7,67.2,60.5,53.8,88,75,54,29.85,29.66,34,3,34,0.18
2013-8-7,74.8,65.4,59.0,58.8,52.1,-99.9,88,67,40,30.04,29.78,14,-11,17,0.00
2013-8-8,74.9,65.9,54.9,59.8,54.9,51.1,87,69,48,30.07,29.99,17,2,17,0.00
2013-8-9,75.5,67.4,59.7,59.7,54.5,47.9,88,66,41,30.13,30.00,21,3,21,0.00
2013-8-10,74.9,66.2,55.5,56.4,53.3,47.4,88,65,44,30.20,30.10,15,1,15,0.00
2013-8-11,79.5,69.5,62.4,62.9,59.7,54.9,87,72,50,30.12,30.00,7,0,7,0.00
2013-8-12,78.5,69.6,61.5,62.2,57.2,50.9,88,67,39,30.08,30.00,21,3,21,0.00
2013-8-13,74.3,64.3,54.4,56.3,48.3,-99.9,88,61,35,30.21,30.07,15,-9,15,0.00
2013-8-14,76.7,66.1,55.3,54.4,51.7,49.1,84,62,40,30.21,30.11,13,0,13,0.00
2013-8-15,78.2,67.3,56.1,59.4,55.0,51.3,85,66,44,30.14,30.09,17,1,17,0.00
2013-8-16,78.8,70.2,61.3,59.1,55.9,52.6,82,62,42,30.20,30.13,14,1,14,0.00
2013-8-17,80.5,69.5,57.4,57.7,54.9,51.3,87,62,39,30.22,30.11,22,3,22,0.00
2013-8-18,80.4,72.0,62.1,60.0,56.9,54.0,79,60,44,30.15,30.00,27,4,27,0.00
2013-8-19,85.1,74.8,66.2,67.7,63.4,58.9,80,68,51,30.03,29.90,16,4,19,0.00
2013-8-20,87.2,78.9,71.2,71.9,68.3,64.3,79,70,59,29.92,29.84,22,4,22,0.00
2013-8-21,85.1,77.5,72.8,75.0,66.2,-99.9,85,73,58,29.99,29.82,18,-18,18,0.00
2013-8-22,83.5,74.8,66.5,65.0,54.3,48.3,79,51,30,30.13,29.98,17,3,17,0.00
2013-8-23,85.3,74.4,62.4,66.3,57.4,48.3,76,56,43,30.16,30.03,17,3,17,0.00
2013-8-24,86.9,78.1,70.1,72.0,67.7,62.9,79,71,59,30.09,29.93,31,8,31,0.00
2013-8-25,93.9,85.0,78.9,74.4,71.7,69.5,74,65,51,30.00,29.91,29,10,29,0.00
2013-8-26,94.3,85.9,79.1,75.4,73.5,71.8,81,67,51,29.96,29.81,24,6,24,0.00
2013-8-27,91.5,81.8,76.3,77.3,69.6,-99.9,85,71,60,29.90,29.76,14,-18,14,0.00
2013-8-28,91.2,79.9,70.6,72.5,68.1,61.5,87,70,39,30.01,29.89,13,1,13,0.00
2013-8-29,90.7,81.2,73.1,75.4,71.0,66.9,87,73,48,30.00,29.83,21,3,21,0.00
2013-8-30,83.5,76.3,70.0,71.4,66.1,61.8,86,71,52,29.92,29.80,20,4,20,0.00
2013-8-31,85.9,73.9,64.2,69.2,64.2,60.3,88,73,52,29.90,29.71,37,2,37,0.04
2013-9-1,72.7,68.5,62.1,63.8,59.4,54.3,84,73,65,29.99,29.71,21,5,21,0.00
2013-9-2,67.0,59.6,53.8,54.4,51.2,49.1,88,74,59,30.12,29.97,16,2,16,0.00
2013-9-3,76.4,63.1,50.2,57.9,52.9,46.6,89,71,45,30.13,30.01,14,2,14,0.00
2013-9-4,83.4,70.6,59.1,64.7,60.0,55.5,88,71,49,30.17,30.03,12,2,12,0.00
2013-9-5,82.3,70.8,58.7,64.2,58.0,49.3,80,65,49,30.24,30.11,14,2,14,0.00
2013-9-6,89.1,78.2,68.8,67.7,64.9,60.5,87,66,41,30.11,29.86,19,4,25,0.00
2013-9-7,90.7,79.2,69.2,70.1,65.9,60.6,85,65,42,30.01,29.84,20,4,20,0.00
2013-9-8,74.7,68.9,62.7,64.2,58.5,52.5,81,70,58,30.06,29.90,18,4,18,0.00
2013-9-9,91.2,77.5,69.0,73.1,68.2,63.6,87,75,50,29.91,29.61,25,4,25,0.00
2013-9-10,79.4,72.9,68.6,71.1,63.0,-99.9,87,73,59,29.99,29.74,15,-8,15,0.01
2013-9-11,82.3,72.6,62.9,62.4,57.1,49.1,88,62,32,30.05,29.98,22,4,22,0.00
2013-9-12,71.4,63.9,55.7,53.9,49.7,43.8,85,62,37,30.25,30.05,28,4,28,0.00
2013-9-13,71.3,63.8,57.1,46.8,44.3,41.9,66,50,37,30.31,30.12,11,1,11,0.00
2013-9-14,71.3,60.0,51.9,57.8,48.6,44.0,88,68,43,30.13,29.92,22,3,22,0.37
2013-9-15,63.1,57.6,50.1,56.4,52.1,44.2,88,82,71,30.36,29.92,19,4,19,0.17
2013-9-16,67.6,54.7,43.4,44.5,41.1,35.3,89,64,33,30.46,30.30,14,1,14,0.00
2013-9-17,66.8,57.9,50.0,54.5,49.3,42.3,88,73,59,30.30,29.98,26,5,26,0.01
2013-9-18,71.4,66.4,58.6,67.0,61.9,54.4,88,85,82,29.98,29.72,14,4,19,0.32
2013-9-19,76.6,71.0,64.9,70.1,65.8,61.3,88,84,73,29.81,29.64,36,3,36,0.28
2013-9-20,66.3,58.7,52.1,60.8,50.3,-99.9,87,76,56,29.95,29.76,26,-4,26,0.00
2013-9-21,62.6,53.6,48.3,48.3,46.0,44.3,88,76,55,30.03,29.94,18,2,18,0.00
2013-9-22,70.3,58.2,46.9,54.7,49.2,42.9,89,73,56,30.03,29.90,23,4,23,0.00
2013-9-23,72.5,62.7,55.2,53.6,51.1,48.7,79,67,48,30.00,29.91,24,5,24,0.00
2013-9-24,75.5,63.4,53.3,54.1,51.4,48.7,86,67,44,30.01,29.94,11,2,18,0.00
2013-9-25,73.1,62.8,52.4,54.9,51.7,48.7,88,69,43,30.00,29.91,12,2,21,0.00
2013-9-26,79.9,67.5,56.8,61.2,55.9,50.8,83,67,52,29.97,29.86,27,6,27,0.00
2013-9-27,83.0,73.1,66.0,63.3,60.5,57.4,76,65,47,29.94,29.81,29,7,29,0.00
2013-9-28,74.4,61.4,49.5,62.0,53.9,45.8,88,77,63,29.97,29.63,39,7,39,0.22
2013-9-29,74.9,60.3,47.7,49.5,45.6,43.0,87,62,32,30.00,29.84,22,4,22,0.00
2013-9-30,78.5,67.3,59.1,53.5,49.8,46.1,66,54,40,29.84,29.62,29,8,29,0.00
2013-10-1,74.6,66.5,51.0,53.4,44.5,31.9,73,48,22,30.00,29.60,29,6,29,0.00
2013-10-2,74.4,60.9,46.7,53.3,43.8,35.1,87,58,24,30.07,29.88,22,4,22,1.26
2013-10-3,59.4,57.6,55.1,55.8,53.7,51.3,88,87,83,29.96,29.83,21,3,21,0.21
2013-10-4,58.8,56.5,54.9,54.3,52.7,50.6,91,87,84,30.03,29.88,23,7,23,0.20
2013-10-5,59.8,55.7,45.7,55.9,52.1,42.4,90,88,85,29.94,29.74,31,2,31,0.34
2013-10-6,54.2,47.4,41.4,50.4,44.2,38.1,91,89,83,29.88,29.71,20,2,20,0.07
2013-10-7,65.5,52.6,43.7,48.2,43.6,40.1,90,74,40,30.03,29.87,15,1,15,0.01
2013-10-8,75.9,63.7,52.0,48.4,45.1,42.2,73,53,34,30.02,29.86,28,6,28,0.00
2013-10-9,75.3,65.7,58.7,52.7,49.5,46.8,71,57,39,30.06,29.94,20,5,20,0.00
2013-10-10,75.7,63.8,53.2,52.9,49.0,44.8,74,60,42,30.07,29.91,26,4,26,0.00
2013-10-11,73.4,66.5,58.6,59.1,53.8,51.1,85,65,49,29.92,29.65,35,8,35,0.10
2013-10-12,69.0,51.7,47.0,56.4,44.0,40.0,87,75,60,30.20,29.69,34,7,34,0.00
2013-10-13,59.4,48.4,37.2,41.4,37.5,33.3,89,69,38,30.48,30.18,18,1,18,0.00
2013-10-14,56.2,49.7,40.4,45.8,39.1,35.6,88,68,51,30.47,30.02,25,3,25,0.28
2013-10-15,54.6,50.0,47.0,51.1,46.6,43.9,89,88,85,30.07,29.71,26,5,26,0.88
2013-10-16,53.7,45.8,38.6,43.8,39.6,35.6,90,80,54,29.99,29.83,20,3,20,0.01
2013-10-17,58.3,46.8,38.2,45.1,39.6,35.2,89,77,49,29.94,29.80,20,3,20,0.22
2013-10-18,51.6,44.2,39.1,41.1,35.0,27.9,90,72,42,30.01,29.86,29,4,29,0.22
2013-10-19,44.0,39.9,35.4,39.2,34.0,-99.9,91,83,70,29.90,29.73,19,-8,19,0.04
2013-10-20,42.9,36.9,32.5,38.8,33.9,29.6,90,89,83,29.92,29.67,20,2,21,0.15
2013-10-21,38.6,35.3,32.8,34.3,24.8,21.7,86,66,55,30.01,29.91,28,6,28,0.00
2013-10-22,40.2,34.0,26.2,33.0,28.4,23.3,90,80,65,30.09,30.00,11,1,11,0.01
2013-10-23,37.3,35.1,33.6,32.3,26.7,20.9,90,72,57,30.16,30.05,21,3,21,0.01
2013-10-24,42.6,37.4,33.2,31.9,27.2,21.7,78,67,53,30.37,30.16,22,3,22,0.00
2013-10-25,51.2,38.4,31.0,36.0,30.8,28.1,89,75,54,30.37,30.02,23,3,23,0.00
2013-10-28,42.7,34.1,32.0,26.4,11.7,-99.9,77,50,41,30.49,30.42,20,-82,20,0.00
2013-10-29,38.8,33.8,31.7,30.4,22.4,-99.9,72,66,63,30.48,30.29,13,-16,13,0.00
2013-10-30,50.2,48.0,43.5,47.1,44.6,40.3,89,88,85,30.06,29.72,16,1,16,0.09
2013-10-31,50.3,44.0,40.0,46.6,40.6,37.0,90,88,84,29.73,29.42,19,4,19,0.02
2013-11-1,50.5,42.8,36.8,39.4,36.3,31.4,94,79,58,29.89,29.43,20,4,20,0.01
2013-11-2,48.7,39.9,33.7,35.5,31.3,28.5,86,72,47,30.15,29.88,18,2,18,0.00
2013-11-3,53.7,39.2,35.3,35.7,17.4,-99.9,82,57,48,30.18,29.95,31,-105,31,0.00
2013-11-4,49.1,45.3,36.2,44.0,37.5,33.3,89,75,56,30.19,29.87,25,5,28,0.03
2013-11-5,44.7,36.9,31.2,35.7,31.0,28.2,90,80,53,30.29,30.07,14,1,15,0.03
2013-11-6,37.9,34.1,31.3,30.9,27.8,24.3,90,78,61,30.22,30.06,12,2,14,0.02
2013-11-7,36.2,29.9,24.9,30.1,23.9,-99.9,90,84,76,30.29,30.21,9,-23,12,0.02
2013-11-8,45.7,36.0,25.5,39.1,28.7,22.7,90,76,55,30.26,29.65,20,4,32,0.00
2013-11-9,44.9,41.3,37.3,39.3,33.0,27.3,83,72,60,30.24,29.66,30,12,37,0.00
2013-11-10,42.1,38.4,32.1,31.9,29.2,26.2,80,69,58,30.38,30.15,16,4,25,0.00
2013-11-11,38.7,25.0,16.2,31.5,14.2,9.1,80,64,47,30.80,30.17,19,8,24,0.00
2013-11-12,28.5,20.3,13.1,14.7,7.6,-99.9,79,63,43,30.87,30.53,12,-15,16,0.00
2013-11-13,49.8,36.2,22.0,34.8,24.2,14.1,73,62,48,30.53,29.92,23,6,27,0.00
2013-11-14,54.1,40.7,33.8,38.3,31.7,-99.9,87,73,54,29.93,29.79,10,-8,12,0.00
2013-11-15,56.5,43.5,32.7,40.9,35.6,29.8,89,75,51,29.90,29.69,17,4,19,0.00
2013-11-16,50.1,45.7,42.6,47.0,41.1,35.3,91,84,69,29.69,29.27,15,4,20,0.15
2013-11-17,45.7,40.5,32.7,42.6,35.4,25.0,90,82,73,29.85,29.33,34,9,35,0.16
2013-11-18,33.9,29.7,23.2,25.3,21.5,18.8,85,71,59,30.33,29.85,26,7,32,0.00
2013-11-19,44.7,35.0,22.7,30.3,25.1,18.7,86,68,51,30.34,30.00,24,6,29,0.00
2013-11-20,45.6,41.0,36.4,33.7,26.8,-99.9,89,62,44,30.09,29.96,21,-14,31,0.00
2013-11-21,39.2,31.4,25.2,36.0,24.5,-99.9,90,81,66,30.57,30.09,19,-20,22,0.00
2013-11-22,33.3,22.3,14.9,16.7,4.0,-99.9,82,57,33,30.70,30.52,23,-64,25,0.00
2013-11-23,18.2,12.5,8.3,4.9,-1.5,-99.9,79,60,44,30.92,30.70,16,-34,22,0.00
2013-11-24,29.9,20.1,8.6,17.0,9.5,3.4,81,64,50,30.81,30.06,27,8,29,0.00
2013-11-25,38.4,31.8,28.5,28.5,16.7,-99.9,77,63,58,30.13,29.97,25,-48,31,0.00
2013-11-26,30.5,21.0,14.5,20.4,8.4,3.5,70,58,47,30.46,30.13,28,10,34,0.00
2013-11-27,24.7,18.3,9.1,10.7,8.3,4.7,84,66,53,30.47,30.16,13,3,16,0.00
2013-11-28,26.3,22.6,13.5,15.0,12.4,9.0,82,65,56,30.60,30.16,17,3,18,0.00
2013-11-29,32.3,23.7,11.1,22.1,15.6,7.5,86,72,57,30.60,30.22,19,4,20,0.00
2013-11-30,39.9,33.3,27.7,27.5,24.9,21.8,83,71,61,30.22,30.08,11,2,14,0.00
2013-12-1,35.9,28.5,19.7,26.5,21.3,-99.9,91,78,66,30.25,29.99,5,-10,7,0.00
2013-12-2,39.2,31.3,28.3,32.6,21.8,-99.9,89,80,75,29.99,29.65,16,-52,19,0.22
2013-12-3,36.0,34.4,31.6,32.9,31.5,29.0,90,89,87,29.85,29.65,15,3,19,0.04
2013-12-4,32.6,27.8,16.4,30.0,21.0,-99.9,91,86,81,29.84,29.51,28,-37,29,0.04
2013-12-5,16.3,7.7,1.5,11.8,1.4,-4.1,84,75,69,30.44,29.74,25,12,29,0.00
2013-12-6,4.7,-0.0,-5.4,-2.6,-6.1,-11.3,80,75,68,30.77,30.43,15,5,18,0.00
2013-12-7,3.4,-2.7,-7.9,-4.7,-9.4,-12.9,79,72,62,30.85,30.71,9,3,15,0.00
2013-12-8,12.2,6.9,-0.9,8.2,2.4,-6.1,91,81,77,30.70,30.14,13,2,15,0.00
2013-12-9,11.9,2.6,-1.9,8.8,-3.0,-8.4,94,77,67,30.21,29.99,25,7,29,0.00
2013-12-10,11.7,6.7,1.8,5.9,0.7,-3.7,85,76,66,30.37,29.88,20,6,26,0.00
2013-12-11,5.8,-1.5,-6.1,-0.7,-9.1,-12.6,76,69,60,30.67,30.38,15,6,22,0.00
2013-12-12,19.7,12.2,0.9,12.5,5.0,-99.9,91,74,66,30.44,30.25,10,-6,14,0.00
2013-12-13,17.2,13.7,10.8,12.3,6.0,-99.9,83,75,74,30.39,30.23,14,-7,19,0.00
2013-12-14,15.8,10.5,2.3,10.2,5.6,-3.1,91,80,75,30.38,30.17,16,4,21,0.00
2013-12-15,4.3,0.8,-1.7,-3.1,-7.6,-10.6,78,67,55,30.27,30.19,14,4,16,0.00
2013-12-16,20.7,9.5,-0.2,17.5,4.0,-9.5,89,78,63,30.26,30.00,12,4,15,0.00
2013-12-17,32.7,28.7,20.7,27.7,23.4,17.4,88,80,70,30.04,29.95,31,10,31,0.00
2013-12-18,34.4,31.6,28.1,26.1,24.5,21.0,83,75,66,29.87,29.72,14,2,14,0.03
2013-12-19,28.1,18.8,16.2,22.4,13.0,9.6,87,78,72,30.15,29.86,19,6,19,0.00
2013-12-20,19.6,17.0,13.9,14.3,12.6,9.8,87,83,78,30.11,29.93,12,2,13,0.00
2013-12-21,23.2,19.3,15.2,17.1,13.3,-99.9,85,80,76,30.08,29.94,15,-9,15,0.00
2013-12-22,21.3,16.3,10.2,18.2,9.9,-99.9,95,82,79,30.31,30.02,15,-21,16,0.00
2013-12-23,10.3,2.3,-3.0,6.0,-3.3,-8.8,83,77,71,30.61,30.30,21,6,21,0.00
2013-12-24,11.6,2.2,-8.5,5.9,-4.0,-13.3,91,75,53,30.61,30.25,21,4,21,0.00
2013-12-25,24.3,16.5,9.6,20.0,11.9,5.5,88,82,71,30.26,30.14,24,3,24,0.00
2013-12-26,27.6,21.2,15.0,22.0,16.6,9.4,89,82,78,30.25,30.15,8,0,8,0.00
2013-12-27,40.4,29.8,17.0,31.5,25.3,14.1,99,83,67,30.24,29.95,29,3,29,0.21
2013-12-28,45.2,31.7,22.4,32.3,23.9,-99.9,90,80,60,30.05,29.69,31,-24,31,0.23
2013-12-29,19.9,1.1,-9.4,16.4,-8.1,-99.9,87,67,48,30.42,30.04,26,3,26,0.00
2013-12-30,2.2,-3.6,-11.1,0.1,-8.8,-16.5,91,78,71,30.41,30.32,9,0,9,0.00
2013-12-31,1.3,-5.3,-10.0,-3.3,-10.6,-15.1,94,77,68,30.55,30.32,11,1,11,0.00
2014-1-1,1.2,-2.7,-8.4,-6.3,-9.9,-15.0,74,71,69,30.64,30.53,10,3,10,0.00
2014-1-2,4.3,-3.1,-10.2,-7.0,-12.0,-15.9,86,66,47,30.63,30.49,10,2,10,0.00